sensor_id;sensor_type;location;lat;lon;timestamp;temperature;humidity
678;DHT22;321;48.814;9.132;2023-08-24T00:01:32;20.80;99.90
678;DHT22;321;48.814;9.132;2023-08-24T00:03:58;20.70;99.90
678;DHT22;321;48.814;9.132;2023-08-24T00:06:23;20.70;99.90
678;DHT22;321;48.814;9.132;2023-08-24T00:08:49;20.60;99.90
678;DHT22;321;48.814;9.132;2023-08-24T00:13:41;20.70;99.90
678;DHT22;321;48.814;9.132;2023-08-24T00:16:11;20.70;99.90
678;DHT22;321;48.814;9.132;2023-08-24T00:18:37;20.70;99.90
678;DHT22;321;48.814;9.132;2023-08-24T00:21:02;20.60;99.90
678;DHT22;321;48.814;9.132;2023-08-24T00:23:28;20.50;99.90
678;DHT22;321;48.814;9.132;2023-08-24T00:25:54;20.60;99.90
678;DHT22;321;48.814;9.132;2023-08-24T00:28:19;20.60;99.90
678;DHT22;321;48.814;9.132;2023-08-24T00:30:45;20.60;99.90
678;DHT22;321;48.814;9.132;2023-08-24T00:33:11;20.60;99.90
678;DHT22;321;48.814;9.132;2023-08-24T00:35:36;20.60;99.90
678;DHT22;321;48.814;9.132;2023-08-24T00:38:02;20.50;99.90
678;DHT22;321;48.814;9.132;2023-08-24T00:42:53;20.60;99.90
678;DHT22;321;48.814;9.132;2023-08-24T00:45:19;20.50;99.90
678;DHT22;321;48.814;9.132;2023-08-24T00:47:46;20.50;99.90
678;DHT22;321;48.814;9.132;2023-08-24T00:50:12;20.50;99.90
678;DHT22;321;48.814;9.132;2023-08-24T00:52:40;20.50;99.90
678;DHT22;321;48.814;9.132;2023-08-24T00:55:06;20.50;99.90
678;DHT22;321;48.814;9.132;2023-08-24T00:57:33;20.50;99.90
678;DHT22;321;48.814;9.132;2023-08-24T01:00:03;20.50;99.90
678;DHT22;321;48.814;9.132;2023-08-24T01:02:31;20.30;99.90
678;DHT22;321;48.814;9.132;2023-08-24T01:04:57;20.40;99.90
678;DHT22;321;48.814;9.132;2023-08-24T01:09:49;20.50;99.90
678;DHT22;321;48.814;9.132;2023-08-24T01:17:22;20.50;99.90
678;DHT22;321;48.814;9.132;2023-08-24T01:19:48;20.40;99.90
678;DHT22;321;48.814;9.132;2023-08-24T01:22:29;20.40;99.90
678;DHT22;321;48.814;9.132;2023-08-24T01:25:15;20.40;99.90
678;DHT22;321;48.814;9.132;2023-08-24T01:27:42;20.50;99.90
678;DHT22;321;48.814;9.132;2023-08-24T01:30:08;20.30;99.90
678;DHT22;321;48.814;9.132;2023-08-24T01:32:35;20.30;99.90
678;DHT22;321;48.814;9.132;2023-08-24T01:35:03;20.30;99.90
678;DHT22;321;48.814;9.132;2023-08-24T01:37:29;20.30;99.90
678;DHT22;321;48.814;9.132;2023-08-24T01:42:58;20.40;99.90
678;DHT22;321;48.814;9.132;2023-08-24T01:45:28;20.50;99.90
678;DHT22;321;48.814;9.132;2023-08-24T01:47:55;20.40;99.90
678;DHT22;321;48.814;9.132;2023-08-24T01:50:22;20.40;99.90
678;DHT22;321;48.814;9.132;2023-08-24T01:52:51;20.50;99.90
678;DHT22;321;48.814;9.132;2023-08-24T01:55:20;20.50;99.90
678;DHT22;321;48.814;9.132;2023-08-24T01:57:46;20.60;99.90
678;DHT22;321;48.814;9.132;2023-08-24T02:00:12;20.50;99.90
678;DHT22;321;48.814;9.132;2023-08-24T02:02:37;20.50;99.90
678;DHT22;321;48.814;9.132;2023-08-24T02:05:03;20.60;99.90
678;DHT22;321;48.814;9.132;2023-08-24T02:07:29;20.50;99.90
678;DHT22;321;48.814;9.132;2023-08-24T02:09:55;20.50;99.90
678;DHT22;321;48.814;9.132;2023-08-24T02:12:20;20.60;99.90
678;DHT22;321;48.814;9.132;2023-08-24T02:14:46;20.50;99.90
678;DHT22;321;48.814;9.132;2023-08-24T02:17:12;20.50;99.90
678;DHT22;321;48.814;9.132;2023-08-24T02:19:37;20.50;99.90
678;DHT22;321;48.814;9.132;2023-08-24T02:22:03;20.40;99.90
678;DHT22;321;48.814;9.132;2023-08-24T02:24:28;20.40;99.90
678;DHT22;321;48.814;9.132;2023-08-24T02:26:54;20.30;99.90
678;DHT22;321;48.814;9.132;2023-08-24T02:29:19;20.30;99.90
678;DHT22;321;48.814;9.132;2023-08-24T02:31:45;20.30;99.90
678;DHT22;321;48.814;9.132;2023-08-24T02:34:11;20.30;99.90
678;DHT22;321;48.814;9.132;2023-08-24T02:36:36;20.20;99.90
678;DHT22;321;48.814;9.132;2023-08-24T02:39:02;20.10;99.90
678;DHT22;321;48.814;9.132;2023-08-24T02:41:28;20.10;99.90
678;DHT22;321;48.814;9.132;2023-08-24T02:43:53;20.10;99.90
678;DHT22;321;48.814;9.132;2023-08-24T02:46:21;20.10;99.90
678;DHT22;321;48.814;9.132;2023-08-24T02:48:46;20.20;99.90
678;DHT22;321;48.814;9.132;2023-08-24T02:51:12;20.20;99.90
678;DHT22;321;48.814;9.132;2023-08-24T02:53:38;20.30;99.90
678;DHT22;321;48.814;9.132;2023-08-24T02:56:04;20.30;99.90
678;DHT22;321;48.814;9.132;2023-08-24T03:00:55;20.30;99.90
678;DHT22;321;48.814;9.132;2023-08-24T03:03:22;20.40;99.90
678;DHT22;321;48.814;9.132;2023-08-24T03:05:56;20.10;99.90
678;DHT22;321;48.814;9.132;2023-08-24T03:08:22;20.30;99.90
678;DHT22;321;48.814;9.132;2023-08-24T03:25:24;20.00;99.90
678;DHT22;321;48.814;9.132;2023-08-24T03:27:49;20.00;99.90
678;DHT22;321;48.814;9.132;2023-08-24T03:30:15;19.90;99.90
678;DHT22;321;48.814;9.132;2023-08-24T03:32:41;19.90;99.90
678;DHT22;321;48.814;9.132;2023-08-24T03:35:07;19.90;99.90
678;DHT22;321;48.814;9.132;2023-08-24T03:37:33;20.00;99.90
678;DHT22;321;48.814;9.132;2023-08-24T03:39:59;20.00;99.90
678;DHT22;321;48.814;9.132;2023-08-24T03:42:24;20.00;99.90
678;DHT22;321;48.814;9.132;2023-08-24T03:44:50;19.80;99.90
678;DHT22;321;48.814;9.132;2023-08-24T03:47:15;19.90;99.90
678;DHT22;321;48.814;9.132;2023-08-24T03:49:44;20.00;99.90
678;DHT22;321;48.814;9.132;2023-08-24T03:52:10;20.10;99.90
678;DHT22;321;48.814;9.132;2023-08-24T03:54:35;20.20;99.90
678;DHT22;321;48.814;9.132;2023-08-24T03:57:01;20.30;99.90
678;DHT22;321;48.814;9.132;2023-08-24T03:59:27;20.30;99.90
678;DHT22;321;48.814;9.132;2023-08-24T04:01:53;20.30;99.90
678;DHT22;321;48.814;9.132;2023-08-24T04:04:19;20.30;99.90
678;DHT22;321;48.814;9.132;2023-08-24T04:06:45;20.40;99.90
678;DHT22;321;48.814;9.132;2023-08-24T04:09:10;20.50;99.90
678;DHT22;321;48.814;9.132;2023-08-24T04:11:36;20.50;99.90
678;DHT22;321;48.814;9.132;2023-08-24T04:14:01;20.50;99.90
678;DHT22;321;48.814;9.132;2023-08-24T04:16:27;20.50;99.90
678;DHT22;321;48.814;9.132;2023-08-24T04:18:52;20.60;99.90
678;DHT22;321;48.814;9.132;2023-08-24T04:21:18;20.60;99.90
678;DHT22;321;48.814;9.132;2023-08-24T04:23:44;20.50;99.90
678;DHT22;321;48.814;9.132;2023-08-24T04:26:13;20.60;99.90
678;DHT22;321;48.814;9.132;2023-08-24T04:28:39;20.70;99.90
678;DHT22;321;48.814;9.132;2023-08-24T04:31:05;20.80;99.90
678;DHT22;321;48.814;9.132;2023-08-24T04:33:30;21.20;99.90
678;DHT22;321;48.814;9.132;2023-08-24T04:35:56;20.90;99.90
678;DHT22;321;48.814;9.132;2023-08-24T04:38:22;20.90;99.90
678;DHT22;321;48.814;9.132;2023-08-24T04:40:55;21.00;99.90
678;DHT22;321;48.814;9.132;2023-08-24T04:43:22;20.90;99.90
678;DHT22;321;48.814;9.132;2023-08-24T04:45:49;21.00;99.90
678;DHT22;321;48.814;9.132;2023-08-24T04:48:21;21.00;99.90
678;DHT22;321;48.814;9.132;2023-08-24T04:50:47;20.80;99.90
678;DHT22;321;48.814;9.132;2023-08-24T04:53:17;20.60;99.90
678;DHT22;321;48.814;9.132;2023-08-24T04:55:43;20.50;99.90
678;DHT22;321;48.814;9.132;2023-08-24T04:58:10;20.50;99.90
678;DHT22;321;48.814;9.132;2023-08-24T05:00:36;20.50;99.90
678;DHT22;321;48.814;9.132;2023-08-24T05:03:06;20.50;99.90
678;DHT22;321;48.814;9.132;2023-08-24T05:05:32;20.60;99.90
678;DHT22;321;48.814;9.132;2023-08-24T05:07:59;20.80;99.90
678;DHT22;321;48.814;9.132;2023-08-24T05:10:25;20.90;99.90
678;DHT22;321;48.814;9.132;2023-08-24T05:12:51;20.90;99.90
678;DHT22;321;48.814;9.132;2023-08-24T05:15:16;20.70;99.90
678;DHT22;321;48.814;9.132;2023-08-24T05:17:42;20.60;99.90
678;DHT22;321;48.814;9.132;2023-08-24T05:20:08;20.40;99.90
678;DHT22;321;48.814;9.132;2023-08-24T05:22:36;20.70;99.90
678;DHT22;321;48.814;9.132;2023-08-24T05:25:01;20.80;99.90
678;DHT22;321;48.814;9.132;2023-08-24T05:27:27;19.90;99.90
678;DHT22;321;48.814;9.132;2023-08-24T05:29:52;20.50;99.90
678;DHT22;321;48.814;9.132;2023-08-24T05:32:18;20.60;99.90
678;DHT22;321;48.814;9.132;2023-08-24T05:34:45;20.70;99.90
678;DHT22;321;48.814;9.132;2023-08-24T05:37:11;20.80;99.90
678;DHT22;321;48.814;9.132;2023-08-24T05:39:37;21.10;99.90
678;DHT22;321;48.814;9.132;2023-08-24T05:42:02;21.20;99.90
678;DHT22;321;48.814;9.132;2023-08-24T05:44:28;21.40;99.90
678;DHT22;321;48.814;9.132;2023-08-24T05:49:19;21.60;99.90
678;DHT22;321;48.814;9.132;2023-08-24T05:51:45;21.00;99.90
678;DHT22;321;48.814;9.132;2023-08-24T05:54:10;21.10;99.90
678;DHT22;321;48.814;9.132;2023-08-24T05:59:02;21.10;99.90
678;DHT22;321;48.814;9.132;2023-08-24T06:01:28;21.20;99.90
678;DHT22;321;48.814;9.132;2023-08-24T06:03:53;21.30;99.90
678;DHT22;321;48.814;9.132;2023-08-24T06:06:19;21.30;99.90
678;DHT22;321;48.814;9.132;2023-08-24T06:08:44;21.60;99.90
678;DHT22;321;48.814;9.132;2023-08-24T06:11:10;21.60;99.90
678;DHT22;321;48.814;9.132;2023-08-24T06:13:35;21.80;99.90
678;DHT22;321;48.814;9.132;2023-08-24T06:16:01;21.90;99.90
678;DHT22;321;48.814;9.132;2023-08-24T06:18:27;22.40;99.90
678;DHT22;321;48.814;9.132;2023-08-24T06:20:53;22.80;99.90
678;DHT22;321;48.814;9.132;2023-08-24T06:23:20;23.20;99.90
678;DHT22;321;48.814;9.132;2023-08-24T06:25:46;23.60;99.90
678;DHT22;321;48.814;9.132;2023-08-24T06:28:12;23.90;99.90
678;DHT22;321;48.814;9.132;2023-08-24T06:30:42;24.50;99.90
678;DHT22;321;48.814;9.132;2023-08-24T06:33:09;24.50;99.90
678;DHT22;321;48.814;9.132;2023-08-24T06:35:36;24.70;99.90
678;DHT22;321;48.814;9.132;2023-08-24T06:38:05;24.80;99.90
678;DHT22;321;48.814;9.132;2023-08-24T06:40:31;25.00;99.90
678;DHT22;321;48.814;9.132;2023-08-24T06:42:57;25.10;99.90
678;DHT22;321;48.814;9.132;2023-08-24T06:47:49;25.00;99.90
678;DHT22;321;48.814;9.132;2023-08-24T06:52:43;24.80;99.90
678;DHT22;321;48.814;9.132;2023-08-24T06:55:09;24.80;99.90
678;DHT22;321;48.814;9.132;2023-08-24T06:57:35;24.70;99.90
678;DHT22;321;48.814;9.132;2023-08-24T07:00:01;24.60;99.90
678;DHT22;321;48.814;9.132;2023-08-24T07:02:31;24.40;99.90
678;DHT22;321;48.814;9.132;2023-08-24T07:04:57;24.40;99.90
678;DHT22;321;48.814;9.132;2023-08-24T07:07:22;24.30;99.90
678;DHT22;321;48.814;9.132;2023-08-24T07:09:48;24.50;99.90
678;DHT22;321;48.814;9.132;2023-08-24T07:12:14;24.60;99.90
678;DHT22;321;48.814;9.132;2023-08-24T07:14:40;24.90;99.90
678;DHT22;321;48.814;9.132;2023-08-24T07:17:06;25.30;99.90
678;DHT22;321;48.814;9.132;2023-08-24T07:19:32;25.80;99.90
678;DHT22;321;48.814;9.132;2023-08-24T07:21:57;25.90;99.90
678;DHT22;321;48.814;9.132;2023-08-24T07:24:23;26.10;99.90
678;DHT22;321;48.814;9.132;2023-08-24T07:26:52;26.40;99.90
678;DHT22;321;48.814;9.132;2023-08-24T07:29:18;26.50;99.90
678;DHT22;321;48.814;9.132;2023-08-24T07:31:44;26.70;99.90
678;DHT22;321;48.814;9.132;2023-08-24T07:34:09;26.90;99.90
678;DHT22;321;48.814;9.132;2023-08-24T07:36:35;26.40;99.90
678;DHT22;321;48.814;9.132;2023-08-24T07:39:00;26.00;99.90
678;DHT22;321;48.814;9.132;2023-08-24T07:41:26;26.40;99.90
678;DHT22;321;48.814;9.132;2023-08-24T07:43:51;27.30;99.90
678;DHT22;321;48.814;9.132;2023-08-24T07:46:17;27.70;99.90
678;DHT22;321;48.814;9.132;2023-08-24T07:48:42;28.30;99.10
678;DHT22;321;48.814;9.132;2023-08-24T07:51:08;28.60;98.00
678;DHT22;321;48.814;9.132;2023-08-24T07:53:36;29.70;97.10
678;DHT22;321;48.814;9.132;2023-08-24T07:56:05;31.00;94.30
678;DHT22;321;48.814;9.132;2023-08-24T07:58:30;30.70;91.90
678;DHT22;321;48.814;9.132;2023-08-24T08:00:58;31.50;91.30
678;DHT22;321;48.814;9.132;2023-08-24T08:03:24;32.60;88.80
678;DHT22;321;48.814;9.132;2023-08-24T08:05:49;33.60;83.40
678;DHT22;321;48.814;9.132;2023-08-24T08:08:15;34.60;82.70
678;DHT22;321;48.814;9.132;2023-08-24T08:10:41;35.30;77.00
678;DHT22;321;48.814;9.132;2023-08-24T08:13:08;36.20;73.90
678;DHT22;321;48.814;9.132;2023-08-24T08:15:34;35.10;71.60
678;DHT22;321;48.814;9.132;2023-08-24T08:17:59;35.90;70.30
678;DHT22;321;48.814;9.132;2023-08-24T08:20:25;36.60;68.50
678;DHT22;321;48.814;9.132;2023-08-24T08:22:53;37.30;66.90
678;DHT22;321;48.814;9.132;2023-08-24T08:25:18;38.50;83.50
678;DHT22;321;48.814;9.132;2023-08-24T08:30:10;38.10;57.80
678;DHT22;321;48.814;9.132;2023-08-24T08:32:36;38.10;58.30
678;DHT22;321;48.814;9.132;2023-08-24T08:35:02;37.50;78.40
678;DHT22;321;48.814;9.132;2023-08-24T08:37:30;37.30;61.90
678;DHT22;321;48.814;9.132;2023-08-24T08:39:57;37.70;59.70
678;DHT22;321;48.814;9.132;2023-08-24T08:44:48;37.80;64.90
678;DHT22;321;48.814;9.132;2023-08-24T08:47:15;37.70;57.90
678;DHT22;321;48.814;9.132;2023-08-24T08:49:47;37.20;59.30
678;DHT22;321;48.814;9.132;2023-08-24T08:52:13;36.50;59.10
678;DHT22;321;48.814;9.132;2023-08-24T08:54:38;36.00;59.40
678;DHT22;321;48.814;9.132;2023-08-24T08:57:04;36.70;59.60
678;DHT22;321;48.814;9.132;2023-08-24T08:59:30;37.70;59.60
678;DHT22;321;48.814;9.132;2023-08-24T09:01:57;36.90;57.60
678;DHT22;321;48.814;9.132;2023-08-24T09:04:27;37.40;58.50
678;DHT22;321;48.814;9.132;2023-08-24T09:06:55;38.00;57.30
678;DHT22;321;48.814;9.132;2023-08-24T09:09:21;37.40;57.90
678;DHT22;321;48.814;9.132;2023-08-24T09:11:48;36.80;57.00
678;DHT22;321;48.814;9.132;2023-08-24T09:14:14;36.40;59.30
678;DHT22;321;48.814;9.132;2023-08-24T09:16:41;36.80;58.60
678;DHT22;321;48.814;9.132;2023-08-24T09:19:06;38.10;56.60
678;DHT22;321;48.814;9.132;2023-08-24T09:21:58;38.40;55.40
678;DHT22;321;48.814;9.132;2023-08-24T09:24:34;39.40;54.10
678;DHT22;321;48.814;9.132;2023-08-24T09:27:16;39.20;53.80
678;DHT22;321;48.814;9.132;2023-08-24T09:29:42;39.70;55.30
678;DHT22;321;48.814;9.132;2023-08-24T09:32:08;40.50;51.80
678;DHT22;321;48.814;9.132;2023-08-24T09:34:36;39.90;52.10
678;DHT22;321;48.814;9.132;2023-08-24T09:37:01;40.00;52.50
678;DHT22;321;48.814;9.132;2023-08-24T09:39:29;38.30;53.90
678;DHT22;321;48.814;9.132;2023-08-24T09:42:00;38.10;54.40
678;DHT22;321;48.814;9.132;2023-08-24T09:44:27;39.00;54.10
678;DHT22;321;48.814;9.132;2023-08-24T09:46:53;38.10;53.50
678;DHT22;321;48.814;9.132;2023-08-24T09:49:19;38.50;54.40
678;DHT22;321;48.814;9.132;2023-08-24T09:51:44;38.40;55.20
678;DHT22;321;48.814;9.132;2023-08-24T09:54:11;38.00;55.80
678;DHT22;321;48.814;9.132;2023-08-24T09:56:39;38.50;55.70
678;DHT22;321;48.814;9.132;2023-08-24T09:59:12;37.80;54.80
678;DHT22;321;48.814;9.132;2023-08-24T10:01:41;37.80;54.90
678;DHT22;321;48.814;9.132;2023-08-24T10:04:08;36.90;58.10
678;DHT22;321;48.814;9.132;2023-08-24T10:06:36;37.10;57.70
678;DHT22;321;48.814;9.132;2023-08-24T10:09:02;38.70;55.00
678;DHT22;321;48.814;9.132;2023-08-24T10:11:43;39.10;53.80
678;DHT22;321;48.814;9.132;2023-08-24T10:14:29;37.90;56.60
678;DHT22;321;48.814;9.132;2023-08-24T10:16:57;38.10;55.20
678;DHT22;321;48.814;9.132;2023-08-24T10:19:23;38.90;54.60
678;DHT22;321;48.814;9.132;2023-08-24T10:21:50;39.70;53.20
678;DHT22;321;48.814;9.132;2023-08-24T10:24:17;37.80;56.60
678;DHT22;321;48.814;9.132;2023-08-24T10:26:46;37.40;56.50
678;DHT22;321;48.814;9.132;2023-08-24T10:29:13;37.60;56.10
678;DHT22;321;48.814;9.132;2023-08-24T10:31:40;37.00;58.50
678;DHT22;321;48.814;9.132;2023-08-24T10:34:07;37.40;59.40
678;DHT22;321;48.814;9.132;2023-08-24T10:36:33;38.10;57.80
678;DHT22;321;48.814;9.132;2023-08-24T10:39:02;36.70;58.20
678;DHT22;321;48.814;9.132;2023-08-24T10:41:49;37.40;56.50
678;DHT22;321;48.814;9.132;2023-08-24T10:44:34;37.70;57.20
678;DHT22;321;48.814;9.132;2023-08-24T10:52:24;38.20;57.70
678;DHT22;321;48.814;9.132;2023-08-24T10:54:53;38.10;57.00
678;DHT22;321;48.814;9.132;2023-08-24T10:57:24;38.20;56.70
678;DHT22;321;48.814;9.132;2023-08-24T11:02:51;38.60;56.30
678;DHT22;321;48.814;9.132;2023-08-24T11:08:04;39.20;55.20
678;DHT22;321;48.814;9.132;2023-08-24T11:10:45;38.80;55.30
678;DHT22;321;48.814;9.132;2023-08-24T11:13:17;39.40;56.00
678;DHT22;321;48.814;9.132;2023-08-24T11:15:46;38.80;55.80
678;DHT22;321;48.814;9.132;2023-08-24T11:20:59;37.70;57.20
678;DHT22;321;48.814;9.132;2023-08-24T11:23:26;37.80;57.30
678;DHT22;321;48.814;9.132;2023-08-24T11:25:52;37.30;59.10
678;DHT22;321;48.814;9.132;2023-08-24T11:28:22;36.70;61.00
678;DHT22;321;48.814;9.132;2023-08-24T11:30:49;37.40;59.70
678;DHT22;321;48.814;9.132;2023-08-24T11:33:16;37.60;61.10
678;DHT22;321;48.814;9.132;2023-08-24T11:35:44;37.70;59.60
678;DHT22;321;48.814;9.132;2023-08-24T11:38:11;38.10;58.50
678;DHT22;321;48.814;9.132;2023-08-24T11:40:37;38.30;57.60
678;DHT22;321;48.814;9.132;2023-08-24T11:43:04;38.70;57.40
678;DHT22;321;48.814;9.132;2023-08-24T11:45:31;39.20;55.80
678;DHT22;321;48.814;9.132;2023-08-24T11:48:02;37.70;58.50
678;DHT22;321;48.814;9.132;2023-08-24T11:50:27;37.30;58.70
678;DHT22;321;48.814;9.132;2023-08-24T11:52:54;37.20;59.30
678;DHT22;321;48.814;9.132;2023-08-24T11:55:23;37.60;58.70
678;DHT22;321;48.814;9.132;2023-08-24T11:57:49;37.40;59.50
678;DHT22;321;48.814;9.132;2023-08-24T12:00:15;36.40;62.00
678;DHT22;321;48.814;9.132;2023-08-24T12:02:42;36.40;62.10
678;DHT22;321;48.814;9.132;2023-08-24T12:05:20;36.80;60.80
678;DHT22;321;48.814;9.132;2023-08-24T12:07:46;36.80;62.90
678;DHT22;321;48.814;9.132;2023-08-24T12:10:12;36.50;62.50
678;DHT22;321;48.814;9.132;2023-08-24T12:12:38;35.90;63.40
678;DHT22;321;48.814;9.132;2023-08-24T12:15:04;35.60;67.30
678;DHT22;321;48.814;9.132;2023-08-24T12:17:30;34.70;67.50
678;DHT22;321;48.814;9.132;2023-08-24T12:20:07;34.60;67.30
678;DHT22;321;48.814;9.132;2023-08-24T12:22:37;34.70;68.10
678;DHT22;321;48.814;9.132;2023-08-24T12:25:03;34.10;69.10
678;DHT22;321;48.814;9.132;2023-08-24T12:27:29;33.60;72.50
678;DHT22;321;48.814;9.132;2023-08-24T12:29:59;33.80;71.50
678;DHT22;321;48.814;9.132;2023-08-24T12:32:25;33.90;70.60
678;DHT22;321;48.814;9.132;2023-08-24T12:34:55;34.00;72.10
678;DHT22;321;48.814;9.132;2023-08-24T12:37:20;33.80;70.20
678;DHT22;321;48.814;9.132;2023-08-24T12:39:46;33.80;72.40
678;DHT22;321;48.814;9.132;2023-08-24T12:42:14;34.10;74.30
678;DHT22;321;48.814;9.132;2023-08-24T12:44:39;34.20;70.20
678;DHT22;321;48.814;9.132;2023-08-24T12:47:05;34.20;71.50
678;DHT22;321;48.814;9.132;2023-08-24T12:49:30;34.30;70.50
678;DHT22;321;48.814;9.132;2023-08-24T12:51:56;34.20;71.30
678;DHT22;321;48.814;9.132;2023-08-24T12:54:21;34.20;70.00
678;DHT22;321;48.814;9.132;2023-08-24T12:56:47;34.20;69.90
678;DHT22;321;48.814;9.132;2023-08-24T12:59:12;33.80;70.00
678;DHT22;321;48.814;9.132;2023-08-24T13:01:38;33.80;70.40
678;DHT22;321;48.814;9.132;2023-08-24T13:04:04;33.90;69.70
678;DHT22;321;48.814;9.132;2023-08-24T13:06:30;33.70;69.80
678;DHT22;321;48.814;9.132;2023-08-24T13:08:56;33.80;69.70
678;DHT22;321;48.814;9.132;2023-08-24T13:11:22;33.80;70.90
678;DHT22;321;48.814;9.132;2023-08-24T13:13:48;33.80;69.20
678;DHT22;321;48.814;9.132;2023-08-24T13:16:14;33.80;69.60
678;DHT22;321;48.814;9.132;2023-08-24T13:18:40;34.10;69.80
678;DHT22;321;48.814;9.132;2023-08-24T13:21:05;34.30;69.10
678;DHT22;321;48.814;9.132;2023-08-24T13:23:31;34.40;72.60
678;DHT22;321;48.814;9.132;2023-08-24T13:26:00;34.50;72.60
678;DHT22;321;48.814;9.132;2023-08-24T13:28:26;34.40;69.10
678;DHT22;321;48.814;9.132;2023-08-24T13:30:51;34.30;69.30
678;DHT22;321;48.814;9.132;2023-08-24T13:33:17;34.50;68.60
678;DHT22;321;48.814;9.132;2023-08-24T13:35:44;34.10;69.20
678;DHT22;321;48.814;9.132;2023-08-24T13:38:10;34.20;91.20
678;DHT22;321;48.814;9.132;2023-08-24T13:43:01;33.70;70.80
678;DHT22;321;48.814;9.132;2023-08-24T13:45:27;33.70;71.40
678;DHT22;321;48.814;9.132;2023-08-24T13:47:56;33.70;70.70
678;DHT22;321;48.814;9.132;2023-08-24T13:50:21;33.50;70.90
678;DHT22;321;48.814;9.132;2023-08-24T13:52:47;33.50;71.90
678;DHT22;321;48.814;9.132;2023-08-24T13:55:12;33.30;70.20
678;DHT22;321;48.814;9.132;2023-08-24T13:57:38;33.50;71.50
678;DHT22;321;48.814;9.132;2023-08-24T14:00:04;33.60;72.30
678;DHT22;321;48.814;9.132;2023-08-24T14:02:30;33.70;70.70
678;DHT22;321;48.814;9.132;2023-08-24T14:04:55;33.80;72.60
678;DHT22;321;48.814;9.132;2023-08-24T14:07:21;33.70;70.70
678;DHT22;321;48.814;9.132;2023-08-24T14:09:46;33.50;68.90
678;DHT22;321;48.814;9.132;2023-08-24T14:12:12;33.60;67.90
678;DHT22;321;48.814;9.132;2023-08-24T14:14:37;33.60;67.10
678;DHT22;321;48.814;9.132;2023-08-24T14:17:03;33.60;66.50
678;DHT22;321;48.814;9.132;2023-08-24T14:19:28;33.70;66.40
678;DHT22;321;48.814;9.132;2023-08-24T14:21:54;33.70;65.50
678;DHT22;321;48.814;9.132;2023-08-24T14:24:20;33.90;68.00
678;DHT22;321;48.814;9.132;2023-08-24T14:26:45;34.00;65.40
678;DHT22;321;48.814;9.132;2023-08-24T14:29:12;34.00;67.00
678;DHT22;321;48.814;9.132;2023-08-24T14:31:37;34.00;63.50
678;DHT22;321;48.814;9.132;2023-08-24T14:34:03;34.10;68.60
678;DHT22;321;48.814;9.132;2023-08-24T14:36:29;34.20;75.30
678;DHT22;321;48.814;9.132;2023-08-24T14:38:55;34.20;67.70
678;DHT22;321;48.814;9.132;2023-08-24T14:41:20;34.20;74.00
678;DHT22;321;48.814;9.132;2023-08-24T14:43:47;34.10;74.40
678;DHT22;321;48.814;9.132;2023-08-24T14:46:12;34.10;77.30
678;DHT22;321;48.814;9.132;2023-08-24T14:48:38;34.00;78.20
678;DHT22;321;48.814;9.132;2023-08-24T14:51:04;34.00;76.20
678;DHT22;321;48.814;9.132;2023-08-24T14:53:30;33.70;70.90
678;DHT22;321;48.814;9.132;2023-08-24T14:55:56;33.40;70.10
678;DHT22;321;48.814;9.132;2023-08-24T14:58:23;33.10;73.50
678;DHT22;321;48.814;9.132;2023-08-24T15:00:50;32.30;81.10
678;DHT22;321;48.814;9.132;2023-08-24T15:03:17;30.90;92.40
678;DHT22;321;48.814;9.132;2023-08-24T15:05:44;28.80;99.90
678;DHT22;321;48.814;9.132;2023-08-24T15:08:10;28.00;99.90
678;DHT22;321;48.814;9.132;2023-08-24T15:10:39;28.50;99.90
678;DHT22;321;48.814;9.132;2023-08-24T15:13:05;27.20;99.90
678;DHT22;321;48.814;9.132;2023-08-24T15:15:34;26.60;99.90
678;DHT22;321;48.814;9.132;2023-08-24T15:18:00;26.20;99.90
678;DHT22;321;48.814;9.132;2023-08-24T15:20:25;26.00;99.90
678;DHT22;321;48.814;9.132;2023-08-24T15:22:51;25.70;99.90
678;DHT22;321;48.814;9.132;2023-08-24T15:25:16;25.40;99.90
678;DHT22;321;48.814;9.132;2023-08-24T15:27:42;25.10;99.90
678;DHT22;321;48.814;9.132;2023-08-24T15:30:08;24.90;99.90
678;DHT22;321;48.814;9.132;2023-08-24T15:32:34;24.80;99.90
678;DHT22;321;48.814;9.132;2023-08-24T15:35:00;24.90;99.90
678;DHT22;321;48.814;9.132;2023-08-24T15:39:52;25.20;99.90
678;DHT22;321;48.814;9.132;2023-08-24T15:42:17;25.20;99.90
678;DHT22;321;48.814;9.132;2023-08-24T15:47:10;25.30;99.90
678;DHT22;321;48.814;9.132;2023-08-24T15:49:35;25.40;99.90
678;DHT22;321;48.814;9.132;2023-08-24T15:52:01;25.40;99.90
678;DHT22;321;48.814;9.132;2023-08-24T15:54:27;25.40;99.90
678;DHT22;321;48.814;9.132;2023-08-24T15:56:52;25.40;99.90
678;DHT22;321;48.814;9.132;2023-08-24T15:59:19;25.10;99.90
678;DHT22;321;48.814;9.132;2023-08-24T16:01:45;25.30;99.90
678;DHT22;321;48.814;9.132;2023-08-24T16:04:12;25.40;99.90
678;DHT22;321;48.814;9.132;2023-08-24T16:06:39;25.30;99.90
678;DHT22;321;48.814;9.132;2023-08-24T16:09:05;25.30;99.90
678;DHT22;321;48.814;9.132;2023-08-24T16:11:30;25.20;99.90
678;DHT22;321;48.814;9.132;2023-08-24T16:13:56;25.30;99.90
678;DHT22;321;48.814;9.132;2023-08-24T16:16:21;25.30;99.90
678;DHT22;321;48.814;9.132;2023-08-24T16:18:47;25.20;99.90
678;DHT22;321;48.814;9.132;2023-08-24T16:21:12;25.20;99.90
678;DHT22;321;48.814;9.132;2023-08-24T16:23:38;25.20;99.90
678;DHT22;321;48.814;9.132;2023-08-24T16:26:03;25.20;99.90
678;DHT22;321;48.814;9.132;2023-08-24T16:28:29;25.20;99.90
678;DHT22;321;48.814;9.132;2023-08-24T16:30:55;25.20;99.90
678;DHT22;321;48.814;9.132;2023-08-24T16:33:20;24.30;99.90
678;DHT22;321;48.814;9.132;2023-08-24T16:35:46;24.10;99.90
678;DHT22;321;48.814;9.132;2023-08-24T16:38:12;24.00;99.90
678;DHT22;321;48.814;9.132;2023-08-24T16:40:38;24.10;99.90
678;DHT22;321;48.814;9.132;2023-08-24T16:43:03;24.10;99.90
678;DHT22;321;48.814;9.132;2023-08-24T16:45:29;24.20;99.90
678;DHT22;321;48.814;9.132;2023-08-24T16:47:55;24.30;99.90
678;DHT22;321;48.814;9.132;2023-08-24T16:50:21;24.20;99.90
678;DHT22;321;48.814;9.132;2023-08-24T16:52:47;23.90;99.90
678;DHT22;321;48.814;9.132;2023-08-24T16:55:13;23.80;99.90
678;DHT22;321;48.814;9.132;2023-08-24T16:57:38;23.80;99.90
678;DHT22;321;48.814;9.132;2023-08-24T17:00:05;23.80;99.90
678;DHT22;321;48.814;9.132;2023-08-24T17:02:32;23.90;99.90
678;DHT22;321;48.814;9.132;2023-08-24T17:04:57;23.80;99.90
678;DHT22;321;48.814;9.132;2023-08-24T17:07:23;24.00;99.90
678;DHT22;321;48.814;9.132;2023-08-24T17:09:49;24.00;99.90
678;DHT22;321;48.814;9.132;2023-08-24T17:12:15;23.50;99.90
678;DHT22;321;48.814;9.132;2023-08-24T17:14:40;23.60;99.90
678;DHT22;321;48.814;9.132;2023-08-24T17:17:06;23.50;99.90
678;DHT22;321;48.814;9.132;2023-08-24T17:19:32;23.50;99.90
678;DHT22;321;48.814;9.132;2023-08-24T17:21:57;23.60;99.90
678;DHT22;321;48.814;9.132;2023-08-24T17:24:23;23.60;99.90
678;DHT22;321;48.814;9.132;2023-08-24T17:26:49;23.30;99.90
678;DHT22;321;48.814;9.132;2023-08-24T17:29:15;23.50;99.90
678;DHT22;321;48.814;9.132;2023-08-24T17:31:41;23.10;99.90
678;DHT22;321;48.814;9.132;2023-08-24T17:34:07;23.10;99.90
678;DHT22;321;48.814;9.132;2023-08-24T17:36:33;23.00;99.90
678;DHT22;321;48.814;9.132;2023-08-24T17:38:59;22.80;99.90